Time;durP1;ratioP1;P1;durP2;ratioP2;P2;SDS_P1;SDS_P2;PMS_P1;PMS_P2;Temp;Humidity;BMP_temperature;BMP_pressure;BME280_temperature;BME280_humidity;BME280_pressure;Samples;Min_cycle;Max_cycle;Signal;HPM_P1;HPM_P2
2023/06/22 00:00:35;;;;;;;;;11.75;10.75;;;;;;;;119860;1192;24912;-66
2023/06/22 00:03:24;;;;;;;;;17.00;15.00;;;;;;;;119880;1183;25596;-66
2023/06/22 00:05:53;;;;;;;;;10.33;8.67;;;;;;;;119855;1192;24896;-66
2023/06/22 00:08:22;;;;;;;;;14.50;10.25;;;;;;;;119493;1192;25462;-66
2023/06/22 00:10:50;;;;;;;;;12.50;11.50;;;;;;;;119863;1192;25136;-66
2023/06/22 00:13:19;;;;;;;;;10.00;9.50;;;;;;;;119875;1183;24955;-66
2023/06/22 00:15:47;;;;;;;;;14.00;12.00;;;;;;;;119880;1192;24977;-65
2023/06/22 00:18:15;;;;;;;;;10.00;8.00;;;;;;;;119871;1192;25649;-66
2023/06/22 00:20:45;;;;;;;;;9.00;7.00;;;;;;;;119867;1192;25384;-66
2023/06/22 00:23:15;;;;;;;;;11.00;11.00;;;;;;;;119873;1183;25266;-66
2023/06/22 00:25:44;;;;;;;;;12.00;11.00;;;;;;;;119890;1192;25244;-66
2023/06/22 00:28:12;;;;;;;;;9.00;8.00;;;;;;;;119846;1192;25452;-65
2023/06/22 00:30:40;;;;;;;;;12.50;12.50;;;;;;;;119882;1183;25001;-66
2023/06/22 00:33:09;;;;;;;;;9.00;9.00;;;;;;;;119866;1192;25333;-67
2023/06/22 00:35:37;;;;;;;;;13.00;11.75;;;;;;;;119881;1192;25437;-66
2023/06/22 00:38:06;;;;;;;;;14.25;11.50;;;;;;;;119887;1192;25247;-67
2023/06/22 00:40:34;;;;;;;;;16.67;12.00;;;;;;;;119869;1192;25771;-66
2023/06/22 00:43:03;;;;;;;;;11.00;10.75;;;;;;;;119893;1183;25049;-66
2023/06/22 00:45:31;;;;;;;;;11.00;10.00;;;;;;;;119872;1192;25336;-67
2023/06/22 00:48:00;;;;;;;;;9.00;9.00;;;;;;;;119877;1183;25357;-66
2023/06/22 00:50:33;;;;;;;;;10.00;9.00;;;;;;;;119864;1192;25367;-67
2023/06/22 00:53:08;;;;;;;;;11.00;10.50;;;;;;;;119706;1193;25394;-67
2023/06/22 00:55:39;;;;;;;;;9.33;9.33;;;;;;;;119853;1192;25291;-66
2023/06/22 00:58:10;;;;;;;;;12.50;11.50;;;;;;;;119712;1192;24807;-66
2023/06/22 01:00:40;;;;;;;;;9.67;9.67;;;;;;;;119870;1184;25236;-66
2023/06/22 01:03:09;;;;;;;;;15.75;10.75;;;;;;;;119490;1192;25207;-66
2023/06/22 01:05:39;;;;;;;;;10.67;10.33;;;;;;;;119462;1192;25645;-67
2023/06/22 01:08:18;;;;;;;;;11.00;10.50;;;;;;;;119488;1192;25706;-66
2023/06/22 01:11:05;;;;;;;;;11.00;10.00;;;;;;;;119869;1183;24826;-66
2023/06/22 01:14:00;;;;;;;;;13.75;10.00;;;;;;;;119874;1192;25362;-65
2023/06/22 01:16:35;;;;;;;;;14.00;11.50;;;;;;;;119717;1192;25577;-65
2023/06/22 01:19:41;;;;;;;;;9.00;9.00;;;;;;;;119507;1189;24922;-65
2023/06/22 01:22:15;;;;;;;;;13.33;10.33;;;;;;;;119773;1192;25110;-65
2023/06/22 01:24:49;;;;;;;;;10.00;10.00;;;;;;;;119504;1185;25483;-65
2023/06/22 01:27:33;;;;;;;;;9.25;9.25;;;;;;;;119896;1192;25599;-65
2023/06/22 01:30:02;;;;;;;;;10.67;10.33;;;;;;;;119505;1192;25380;-65
2023/06/22 01:32:33;;;;;;;;;9.00;7.00;;;;;;;;119720;1192;25326;-66
2023/06/22 01:35:06;;;;;;;;;14.00;11.50;;;;;;;;119468;1192;24828;-65
2023/06/22 01:37:36;;;;;;;;;13.67;12.33;;;;;;;;119868;1192;25605;-65
2023/06/22 01:40:06;;;;;;;;;11.50;10.00;;;;;;;;119715;1192;25218;-66
2023/06/22 01:42:35;;;;;;;;;12.33;10.33;;;;;;;;119469;1190;25455;-65
2023/06/22 01:45:05;;;;;;;;;12.00;9.00;;;;;;;;119534;1192;25235;-65
2023/06/22 01:47:33;;;;;;;;;16.67;13.33;;;;;;;;119497;1192;24882;-65
2023/06/22 01:50:02;;;;;;;;;10.50;9.50;;;;;;;;119500;1192;25403;-66
2023/06/22 01:52:33;;;;;;;;;13.67;11.67;;;;;;;;119502;1186;25383;-65
2023/06/22 01:55:02;;;;;;;;;14.00;10.00;;;;;;;;119867;1183;25064;-66
2023/06/22 01:57:30;;;;;;;;;11.50;11.50;;;;;;;;119884;1192;25577;-65
2023/06/22 02:00:10;;;;;;;;;9.00;9.00;;;;;;;;119488;1193;25179;-65
2023/06/22 02:03:00;;;;;;;;;10.50;10.50;;;;;;;;119514;1192;24724;-65
2023/06/22 02:05:34;;;;;;;;;11.33;10.67;;;;;;;;119872;1192;25681;-65
2023/06/22 02:08:11;;;;;;;;;10.75;10.75;;;;;;;;119879;1183;25083;-65
2023/06/22 02:10:43;;;;;;;;;9.00;9.00;;;;;;;;119499;1185;25563;-65
2023/06/22 02:13:13;;;;;;;;;9.00;8.75;;;;;;;;119889;1192;25576;-65
2023/06/22 02:15:42;;;;;;;;;12.50;12.50;;;;;;;;119912;1186;25836;-65
2023/06/22 02:18:10;;;;;;;;;12.00;10.00;;;;;;;;119504;1185;25382;-65
2023/06/22 02:20:39;;;;;;;;;13.00;10.00;;;;;;;;119502;1192;24872;-65
2023/06/22 02:23:08;;;;;;;;;11.00;10.00;;;;;;;;119879;1183;25016;-65
2023/06/22 02:25:36;;;;;;;;;14.67;10.67;;;;;;;;119852;1192;25291;-65
2023/06/22 02:28:05;;;;;;;;;11.33;10.33;;;;;;;;119877;1192;25561;-65
2023/06/22 02:30:33;;;;;;;;;12.33;8.33;;;;;;;;119854;1192;25615;-65
2023/06/22 02:33:01;;;;;;;;;15.50;12.00;;;;;;;;119508;1192;25562;-65
2023/06/22 02:35:35;;;;;;;;;14.00;6.50;;;;;;;;119884;1183;24843;-65
2023/06/22 02:38:04;;;;;;;;;10.75;9.00;;;;;;;;119484;1192;25557;-65
2023/06/22 02:40:32;;;;;;;;;13.00;12.00;;;;;;;;119465;1192;25036;-65
2023/06/22 02:43:02;;;;;;;;;11.00;10.00;;;;;;;;119873;1192;24935;-65
2023/06/22 02:45:31;;;;;;;;;9.00;8.50;;;;;;;;119744;1192;25553;-66
2023/06/22 02:47:59;;;;;;;;;7.00;7.00;;;;;;;;119485;1192;25245;-65
2023/06/22 02:50:28;;;;;;;;;13.25;11.50;;;;;;;;119516;1180;25055;-65
2023/06/22 02:52:58;;;;;;;;;8.67;8.67;;;;;;;;119741;1185;24891;-65
2023/06/22 02:55:26;;;;;;;;;10.33;10.33;;;;;;;;119863;1192;25568;-65
2023/06/22 02:57:54;;;;;;;;;14.00;13.67;;;;;;;;119870;1192;25313;-65
2023/06/22 03:00:30;;;;;;;;;12.00;12.00;;;;;;;;119851;1192;24881;-65
2023/06/22 03:02:59;;;;;;;;;9.67;8.67;;;;;;;;119491;1184;25093;-65
2023/06/22 03:05:27;;;;;;;;;8.50;7.50;;;;;;;;119708;1192;25253;-65
2023/06/22 03:07:56;;;;;;;;;12.00;10.00;;;;;;;;119892;1183;25459;-66
2023/06/22 03:10:24;;;;;;;;;8.75;8.75;;;;;;;;119883;1192;25099;-65
2023/06/22 03:12:53;;;;;;;;;14.00;12.00;;;;;;;;119490;1192;25220;-65
2023/06/22 03:15:21;;;;;;;;;8.00;8.00;;;;;;;;119862;1192;25745;-65
2023/06/22 03:17:50;;;;;;;;;9.50;7.00;;;;;;;;119861;1192;25593;-65
2023/06/22 03:20:19;;;;;;;;;13.00;11.50;;;;;;;;119843;1192;25094;-65
2023/06/22 03:22:48;;;;;;;;;12.25;11.00;;;;;;;;119875;1188;25615;-65
2023/06/22 03:25:17;;;;;;;;;11.75;11.25;;;;;;;;119984;1183;24730;-65
2023/06/22 03:27:45;;;;;;;;;9.50;9.50;;;;;;;;119479;1193;25524;-65
2023/06/22 03:30:13;;;;;;;;;11.00;10.00;;;;;;;;119871;1192;25960;-65
2023/06/22 03:32:43;;;;;;;;;12.33;11.67;;;;;;;;119855;1192;24968;-65
2023/06/22 03:35:13;;;;;;;;;10.00;9.00;;;;;;;;119872;1191;24818;-67
2023/06/22 03:37:42;;;;;;;;;16.33;14.00;;;;;;;;119871;1183;24738;-65
2023/06/22 03:40:11;;;;;;;;;14.00;12.00;;;;;;;;119880;1191;24922;-65
2023/06/22 03:42:39;;;;;;;;;15.33;15.00;;;;;;;;119501;1185;25076;-65
2023/06/22 03:45:08;;;;;;;;;12.00;11.50;;;;;;;;119858;1192;25000;-65
2023/06/22 03:47:36;;;;;;;;;8.00;8.00;;;;;;;;119866;1191;25029;-66
2023/06/22 03:50:05;;;;;;;;;9.00;9.00;;;;;;;;119871;1192;25629;-65
2023/06/22 03:52:34;;;;;;;;;11.00;11.00;;;;;;;;119878;1192;24698;-65
2023/06/22 03:55:03;;;;;;;;;12.75;10.75;;;;;;;;119881;1192;25374;-65
2023/06/22 03:57:31;;;;;;;;;14.00;12.00;;;;;;;;119531;1185;25556;-65
2023/06/22 04:00:02;;;;;;;;;12.00;10.75;;;;;;;;119851;1192;26021;-66
2023/06/22 04:02:31;;;;;;;;;12.67;12.67;;;;;;;;119857;1189;25317;-66
2023/06/22 04:04:59;;;;;;;;;13.33;11.00;;;;;;;;119503;1192;24867;-65
2023/06/22 04:07:31;;;;;;;;;15.50;14.50;;;;;;;;119867;1192;25504;-65
2023/06/22 04:10:00;;;;;;;;;13.50;11.00;;;;;;;;119853;1192;25309;-65
2023/06/22 04:12:28;;;;;;;;;10.25;9.25;;;;;;;;119874;1192;24858;-65
2023/06/22 04:14:56;;;;;;;;;13.50;10.00;;;;;;;;119448;1192;26378;-65
2023/06/22 04:17:25;;;;;;;;;10.67;8.67;;;;;;;;119868;1183;25246;-65
2023/06/22 04:19:53;;;;;;;;;10.00;10.00;;;;;;;;119870;1183;25138;-65
2023/06/22 04:22:21;;;;;;;;;12.67;11.67;;;;;;;;119887;1192;25607;-66
2023/06/22 04:24:51;;;;;;;;;12.00;11.33;;;;;;;;119728;1184;25275;-65
2023/06/22 04:27:22;;;;;;;;;14.75;12.50;;;;;;;;119888;1192;25493;-66
2023/06/22 04:29:51;;;;;;;;;13.00;13.00;;;;;;;;119861;1183;25061;-65
2023/06/22 04:32:20;;;;;;;;;13.00;12.00;;;;;;;;119865;1192;25044;-66
2023/06/22 04:34:48;;;;;;;;;13.00;11.00;;;;;;;;119498;1184;25216;-66
2023/06/22 04:37:16;;;;;;;;;17.00;13.33;;;;;;;;119861;1192;25367;-66
2023/06/22 04:39:45;;;;;;;;;14.00;10.00;;;;;;;;119885;1192;25677;-66
2023/06/22 04:42:13;;;;;;;;;18.00;11.00;;;;;;;;119854;1192;25427;-66
2023/06/22 04:44:42;;;;;;;;;11.00;10.50;;;;;;;;119498;1185;25020;-65
2023/06/22 04:47:10;;;;;;;;;15.67;13.33;;;;;;;;119865;1192;25238;-65
2023/06/22 04:49:40;;;;;;;;;12.33;12.33;;;;;;;;119891;1192;25129;-65
2023/06/22 04:52:10;;;;;;;;;12.00;10.75;;;;;;;;119888;1192;24860;-66
2023/06/22 04:54:40;;;;;;;;;12.00;9.50;;;;;;;;119491;1192;25660;-67
2023/06/22 04:57:11;;;;;;;;;11.50;11.00;;;;;;;;119489;1183;25449;-65
2023/06/22 04:59:41;;;;;;;;;15.00;13.50;;;;;;;;119863;1192;25636;-66
2023/06/22 05:02:10;;;;;;;;;14.00;13.00;;;;;;;;119894;1192;25256;-66
2023/06/22 05:04:38;;;;;;;;;17.50;14.00;;;;;;;;119516;1186;24930;-66
2023/06/22 05:07:07;;;;;;;;;15.75;13.75;;;;;;;;119504;1189;24949;-66
2023/06/22 05:09:36;;;;;;;;;11.67;11.67;;;;;;;;119839;1183;25603;-65
2023/06/22 05:12:05;;;;;;;;;15.00;13.00;;;;;;;;119874;1183;24856;-66
2023/06/22 05:14:36;;;;;;;;;13.33;10.00;;;;;;;;119852;1189;25277;-67
2023/06/22 05:17:13;;;;;;;;;15.25;12.25;;;;;;;;119865;1192;25041;-66
2023/06/22 05:19:48;;;;;;;;;17.00;16.00;;;;;;;;119878;1192;25564;-65
2023/06/22 05:22:16;;;;;;;;;15.00;13.25;;;;;;;;119524;1184;25539;-65
2023/06/22 05:24:45;;;;;;;;;13.00;12.67;;;;;;;;119870;1192;25256;-66
2023/06/22 05:27:14;;;;;;;;;14.00;12.75;;;;;;;;119511;1192;25380;-66
2023/06/22 05:29:42;;;;;;;;;15.75;13.00;;;;;;;;119875;1183;25363;-66
2023/06/22 05:32:11;;;;;;;;;10.00;7.67;;;;;;;;119858;1192;25683;-66
2023/06/22 05:34:39;;;;;;;;;17.00;16.00;;;;;;;;119853;1192;25588;-66
2023/06/22 05:37:09;;;;;;;;;15.00;13.00;;;;;;;;119874;1192;25115;-65
2023/06/22 05:39:37;;;;;;;;;21.00;15.33;;;;;;;;119491;1192;25368;-65
2023/06/22 05:42:07;;;;;;;;;14.00;12.00;;;;;;;;119866;1192;25180;-66
2023/06/22 05:44:39;;;;;;;;;18.50;16.00;;;;;;;;119508;1192;24808;-66
2023/06/22 05:47:07;;;;;;;;;18.00;14.50;;;;;;;;120062;1179;25292;-66
2023/06/22 05:49:36;;;;;;;;;16.00;14.00;;;;;;;;119877;1192;24991;-67
2023/06/22 05:52:04;;;;;;;;;14.33;13.67;;;;;;;;119872;1192;25484;-65
2023/06/22 05:54:33;;;;;;;;;15.50;13.00;;;;;;;;119871;1192;25648;-66
2023/06/22 05:57:01;;;;;;;;;14.33;14.00;;;;;;;;119865;1192;25238;-65
2023/06/22 05:59:29;;;;;;;;;15.00;12.00;;;;;;;;119501;1193;24946;-65
2023/06/22 06:01:58;;;;;;;;;15.00;14.00;;;;;;;;119889;1192;25707;-66
2023/06/22 06:04:26;;;;;;;;;21.00;16.00;;;;;;;;119890;1183;25006;-65
2023/06/22 06:06:55;;;;;;;;;14.00;12.33;;;;;;;;119890;1192;25090;-65
2023/06/22 06:09:23;;;;;;;;;14.00;12.00;;;;;;;;119886;1183;25474;-66
2023/06/22 06:11:51;;;;;;;;;14.00;14.00;;;;;;;;119880;1192;26083;-66
2023/06/22 06:14:20;;;;;;;;;16.50;15.50;;;;;;;;119484;1192;25645;-65
2023/06/22 06:16:49;;;;;;;;;13.00;13.00;;;;;;;;119909;1183;25208;-66
2023/06/22 06:19:17;;;;;;;;;12.75;11.50;;;;;;;;119876;1192;24728;-65
2023/06/22 06:21:46;;;;;;;;;16.00;15.00;;;;;;;;119871;1192;25367;-66
2023/06/22 06:24:14;;;;;;;;;16.00;14.50;;;;;;;;119861;1192;24957;-65
2023/06/22 06:26:42;;;;;;;;;17.67;17.67;;;;;;;;119873;1183;24682;-66
2023/06/22 06:29:11;;;;;;;;;16.00;13.50;;;;;;;;119851;1192;25285;-65
2023/06/22 06:31:39;;;;;;;;;12.00;12.00;;;;;;;;119874;1192;24984;-65
2023/06/22 06:34:07;;;;;;;;;16.00;14.50;;;;;;;;119499;1186;25430;-65
2023/06/22 06:36:36;;;;;;;;;14.00;13.00;;;;;;;;119879;1188;24707;-65
2023/06/22 06:39:04;;;;;;;;;14.00;14.00;;;;;;;;119876;1192;25448;-65
2023/06/22 06:41:33;;;;;;;;;15.50;14.00;;;;;;;;119878;1183;25144;-65
2023/06/22 06:44:01;;;;;;;;;13.67;12.67;;;;;;;;119714;1193;25541;-65
2023/06/22 06:46:30;;;;;;;;;14.33;14.00;;;;;;;;119856;1192;25497;-66
2023/06/22 06:48:58;;;;;;;;;15.75;14.25;;;;;;;;119500;1192;24793;-66
2023/06/22 06:51:27;;;;;;;;;17.50;16.50;;;;;;;;119880;1188;25319;-66
2023/06/22 06:53:55;;;;;;;;;14.00;14.00;;;;;;;;119873;1183;24878;-65
2023/06/22 06:56:23;;;;;;;;;16.00;14.75;;;;;;;;119849;1183;25087;-65
2023/06/22 06:58:52;;;;;;;;;13.33;12.00;;;;;;;;119507;1192;25407;-65
2023/06/22 07:01:20;;;;;;;;;16.50;15.50;;;;;;;;119850;1192;25648;-65
2023/06/22 07:03:50;;;;;;;;;13.00;11.50;;;;;;;;119730;1192;24790;-66
2023/06/22 07:06:18;;;;;;;;;18.33;15.00;;;;;;;;119865;1192;25271;-65
2023/06/22 07:08:46;;;;;;;;;14.00;14.00;;;;;;;;119859;1183;25000;-66
2023/06/22 07:11:15;;;;;;;;;16.67;12.33;;;;;;;;119877;1192;24966;-66
2023/06/22 07:13:43;;;;;;;;;13.00;13.00;;;;;;;;119879;1183;24838;-66
2023/06/22 07:16:11;;;;;;;;;18.50;16.00;;;;;;;;119853;1183;24985;-66
2023/06/22 07:18:40;;;;;;;;;14.50;14.50;;;;;;;;119872;1192;25243;-66
2023/06/22 07:21:09;;;;;;;;;15.33;12.33;;;;;;;;119876;1192;25540;-66
2023/06/22 07:23:37;;;;;;;;;14.00;14.00;;;;;;;;119888;1192;25456;-65
2023/06/22 07:26:06;;;;;;;;;13.33;12.67;;;;;;;;119864;1183;25469;-66
2023/06/22 07:28:37;;;;;;;;;16.00;13.00;;;;;;;;119839;1192;25475;-66
2023/06/22 07:31:06;;;;;;;;;12.50;11.00;;;;;;;;119492;1192;25750;-64
2023/06/22 07:33:35;;;;;;;;;13.50;13.00;;;;;;;;119867;1183;24913;-65
2023/06/22 07:36:07;;;;;;;;;16.67;14.33;;;;;;;;119857;1192;25603;-65
2023/06/22 07:38:40;;;;;;;;;14.33;13.33;;;;;;;;119888;1183;24708;-66
2023/06/22 07:41:09;;;;;;;;;13.50;13.50;;;;;;;;119509;1192;24832;-65
2023/06/22 07:43:37;;;;;;;;;12.75;12.75;;;;;;;;119891;1189;24799;-65
2023/06/22 07:46:06;;;;;;;;;15.00;14.50;;;;;;;;119525;1193;24901;-65
2023/06/22 07:48:37;;;;;;;;;17.00;15.00;;;;;;;;119881;1192;25302;-66
2023/06/22 07:51:06;;;;;;;;;17.25;16.00;;;;;;;;119647;1179;24882;-66
2023/06/22 07:53:35;;;;;;;;;15.00;14.67;;;;;;;;119895;1183;26306;-66
2023/06/22 07:56:06;;;;;;;;;18.00;15.50;;;;;;;;119544;1192;24871;-66
2023/06/22 07:58:35;;;;;;;;;14.00;12.50;;;;;;;;119864;1192;24852;-66
2023/06/22 08:01:04;;;;;;;;;15.00;14.00;;;;;;;;119853;1192;24827;-66
2023/06/22 08:03:32;;;;;;;;;11.50;11.50;;;;;;;;119490;1192;25197;-67
2023/06/22 08:06:01;;;;;;;;;17.50;14.50;;;;;;;;119491;1192;24965;-66
2023/06/22 08:08:29;;;;;;;;;17.00;14.00;;;;;;;;119874;1192;25257;-66
2023/06/22 08:10:58;;;;;;;;;18.00;13.00;;;;;;;;119498;1192;24873;-66
2023/06/22 08:13:26;;;;;;;;;15.00;14.00;;;;;;;;119882;1192;25199;-66
2023/06/22 08:15:54;;;;;;;;;14.00;13.00;;;;;;;;119869;1184;25414;-66
2023/06/22 08:18:23;;;;;;;;;15.00;14.00;;;;;;;;119477;1192;25186;-66
2023/06/22 08:20:51;;;;;;;;;15.00;15.00;;;;;;;;119502;1186;25650;-66
2023/06/22 08:23:20;;;;;;;;;16.00;12.33;;;;;;;;119877;1192;25349;-66
2023/06/22 08:25:50;;;;;;;;;17.00;14.00;;;;;;;;119864;1192;25349;-65
2023/06/22 08:28:18;;;;;;;;;18.00;13.00;;;;;;;;119514;1192;24726;-65
2023/06/22 08:30:47;;;;;;;;;17.50;14.50;;;;;;;;119882;1183;25303;-66
2023/06/22 08:33:15;;;;;;;;;15.33;13.67;;;;;;;;119524;1192;25620;-65
2023/06/22 08:35:55;;;;;;;;;15.00;12.33;;;;;;;;119848;1192;24826;-65
2023/06/22 08:38:24;;;;;;;;;15.50;13.75;;;;;;;;119895;1192;25639;-65
2023/06/22 08:40:52;;;;;;;;;15.75;14.00;;;;;;;;119485;1186;25647;-65
2023/06/22 08:43:21;;;;;;;;;16.00;14.67;;;;;;;;119859;1192;24798;-65
2023/06/22 08:45:49;;;;;;;;;15.00;14.00;;;;;;;;119868;1183;25646;-65
2023/06/22 08:48:18;;;;;;;;;14.00;13.00;;;;;;;;119869;1192;25325;-65
2023/06/22 08:50:46;;;;;;;;;14.00;12.00;;;;;;;;119520;1192;25337;-65
2023/06/22 08:53:15;;;;;;;;;13.00;12.00;;;;;;;;119842;1192;26344;-65
2023/06/22 08:55:43;;;;;;;;;16.00;14.50;;;;;;;;119868;1192;24771;-65
2023/06/22 08:58:12;;;;;;;;;11.50;11.50;;;;;;;;119889;1183;25102;-66
2023/06/22 09:00:40;;;;;;;;;14.00;13.33;;;;;;;;119885;1192;25079;-66
2023/06/22 09:03:08;;;;;;;;;11.67;9.33;;;;;;;;119877;1183;25586;-65
2023/06/22 09:05:38;;;;;;;;;16.67;13.00;;;;;;;;119860;1192;25685;-67
2023/06/22 09:08:06;;;;;;;;;13.00;12.75;;;;;;;;119491;1192;25432;-66
2023/06/22 09:10:35;;;;;;;;;17.67;13.33;;;;;;;;119480;1185;25762;-65
2023/06/22 09:13:03;;;;;;;;;18.00;12.67;;;;;;;;119858;1192;25202;-66
2023/06/22 09:15:31;;;;;;;;;11.00;11.00;;;;;;;;119859;1192;25195;-65
2023/06/22 09:18:00;;;;;;;;;17.00;15.50;;;;;;;;119522;1192;24877;-65
2023/06/22 09:20:29;;;;;;;;;13.00;11.00;;;;;;;;119873;1192;25589;-65
2023/06/22 09:22:58;;;;;;;;;15.00;12.50;;;;;;;;119869;1192;25534;-65
2023/06/22 09:25:26;;;;;;;;;19.50;17.50;;;;;;;;119512;1193;25316;-65
2023/06/22 09:27:55;;;;;;;;;14.00;14.00;;;;;;;;119878;1192;25526;-65
2023/06/22 09:30:23;;;;;;;;;12.00;12.00;;;;;;;;119874;1183;24968;-65
2023/06/22 09:32:52;;;;;;;;;11.00;11.00;;;;;;;;119497;1192;25050;-65
2023/06/22 09:35:20;;;;;;;;;15.50;13.00;;;;;;;;119879;1192;25020;-66
2023/06/22 09:37:48;;;;;;;;;14.00;13.00;;;;;;;;119889;1183;25311;-66
2023/06/22 09:40:17;;;;;;;;;16.00;14.25;;;;;;;;119888;1192;25337;-65
2023/06/22 09:42:45;;;;;;;;;13.67;13.33;;;;;;;;119867;1192;24758;-66
2023/06/22 09:45:14;;;;;;;;;14.00;11.33;;;;;;;;119895;1192;25593;-65
2023/06/22 09:47:42;;;;;;;;;14.25;14.25;;;;;;;;119868;1192;25143;-66
2023/06/22 09:50:11;;;;;;;;;16.00;12.00;;;;;;;;119884;1183;25731;-65
2023/06/22 09:52:39;;;;;;;;;15.00;14.00;;;;;;;;119876;1192;25161;-65
2023/06/22 09:55:10;;;;;;;;;12.50;12.50;;;;;;;;119877;1192;24729;-65
2023/06/22 09:57:39;;;;;;;;;19.67;15.00;;;;;;;;119884;1192;25482;-65
2023/06/22 10:00:13;;;;;;;;;17.00;11.50;;;;;;;;119877;1192;24967;-65
2023/06/22 10:02:41;;;;;;;;;15.50;15.00;;;;;;;;119856;1192;25005;-66
2023/06/22 10:05:10;;;;;;;;;11.50;11.50;;;;;;;;119870;1192;24938;-65
2023/06/22 10:07:43;;;;;;;;;17.50;15.50;;;;;;;;119843;1192;25269;-65
2023/06/22 10:10:13;;;;;;;;;13.00;11.00;;;;;;;;119517;1190;25208;-65
2023/06/22 10:13:11;;;;;;;;;15.33;11.33;;;;;;;;119470;1182;25060;-61
2023/06/22 10:15:39;;;;;;;;;12.50;10.25;;;;;;;;119486;1189;25527;-63
2023/06/22 10:18:07;;;;;;;;;15.67;12.33;;;;;;;;119467;1192;24950;-60
2023/06/22 10:20:36;;;;;;;;;12.00;12.00;;;;;;;;119856;1183;25742;-63
2023/06/22 10:23:04;;;;;;;;;12.00;11.00;;;;;;;;119506;1192;25449;-61
2023/06/22 10:25:33;;;;;;;;;12.33;11.33;;;;;;;;119856;1183;25542;-62
2023/06/22 10:28:01;;;;;;;;;16.33;14.00;;;;;;;;119879;1192;25444;-63
2023/06/22 10:30:30;;;;;;;;;16.00;16.00;;;;;;;;119869;1192;25084;-62
2023/06/22 10:32:58;;;;;;;;;19.50;16.00;;;;;;;;119467;1192;25228;-62
2023/06/22 10:35:27;;;;;;;;;16.75;13.75;;;;;;;;119880;1183;25276;-62
2023/06/22 10:37:56;;;;;;;;;17.50;13.00;;;;;;;;119868;1183;24808;-63
2023/06/22 10:40:24;;;;;;;;;16.75;14.75;;;;;;;;119861;1192;24970;-62
2023/06/22 10:42:53;;;;;;;;;15.50;10.75;;;;;;;;119864;1183;24774;-62
2023/06/22 10:45:21;;;;;;;;;19.25;15.75;;;;;;;;119841;1192;24996;-63
2023/06/22 10:47:49;;;;;;;;;12.00;11.00;;;;;;;;119803;1192;25334;-63
2023/06/22 10:50:18;;;;;;;;;19.00;16.00;;;;;;;;119858;1192;24858;-62
2023/06/22 10:52:46;;;;;;;;;17.00;16.00;;;;;;;;119475;1192;24952;-64
2023/06/22 10:55:15;;;;;;;;;10.67;10.00;;;;;;;;119889;1192;24780;-61
2023/06/22 10:57:44;;;;;;;;;15.00;13.67;;;;;;;;119872;1192;25384;-61
2023/06/22 11:00:13;;;;;;;;;13.50;11.00;;;;;;;;119861;1188;25538;-61
2023/06/22 11:02:42;;;;;;;;;14.00;14.00;;;;;;;;119506;1192;25228;-62
2023/06/22 11:05:11;;;;;;;;;14.33;13.00;;;;;;;;119757;1192;25584;-61
2023/06/22 11:07:43;;;;;;;;;17.50;13.00;;;;;;;;119676;1193;25512;-61
2023/06/22 11:10:17;;;;;;;;;15.00;14.00;;;;;;;;119460;1193;24871;-60
2023/06/22 11:12:45;;;;;;;;;16.33;13.33;;;;;;;;119789;1192;25565;-60
2023/06/22 11:15:13;;;;;;;;;15.00;14.00;;;;;;;;119867;1192;25446;-63
2023/06/22 11:17:42;;;;;;;;;15.00;14.50;;;;;;;;119869;1192;25155;-60
2023/06/22 11:20:11;;;;;;;;;16.75;15.00;;;;;;;;119856;1192;25095;-60
2023/06/22 11:22:40;;;;;;;;;17.00;15.00;;;;;;;;119477;1192;24765;-60
2023/06/22 11:25:11;;;;;;;;;12.00;12.00;;;;;;;;119485;1193;25064;-60
2023/06/22 11:27:39;;;;;;;;;14.33;14.33;;;;;;;;119468;1192;25299;-60
2023/06/22 11:30:08;;;;;;;;;15.33;9.00;;;;;;;;119893;1183;25095;-61
2023/06/22 11:32:37;;;;;;;;;18.00;13.00;;;;;;;;119440;1192;25644;-58
2023/06/22 11:35:06;;;;;;;;;12.00;10.00;;;;;;;;119836;1192;25317;-57
2023/06/22 11:37:34;;;;;;;;;14.25;12.25;;;;;;;;119488;1192;25621;-58
2023/06/22 11:40:05;;;;;;;;;13.00;12.00;;;;;;;;119876;1192;25690;-59
2023/06/22 11:42:35;;;;;;;;;15.75;14.75;;;;;;;;119470;1184;25030;-59
2023/06/22 11:45:07;;;;;;;;;14.50;11.50;;;;;;;;119568;1192;24833;-59
2023/06/22 11:47:36;;;;;;;;;10.50;10.00;;;;;;;;119865;1192;25750;-59
2023/06/22 11:50:05;;;;;;;;;13.00;13.00;;;;;;;;119486;1190;25500;-59
2023/06/22 11:52:35;;;;;;;;;13.67;11.00;;;;;;;;119870;1192;25365;-59
2023/06/22 11:55:05;;;;;;;;;16.00;14.50;;;;;;;;119538;1185;25308;-59
2023/06/22 11:57:36;;;;;;;;;14.75;14.75;;;;;;;;119878;1192;25288;-59
2023/06/22 12:00:15;;;;;;;;;12.00;11.00;;;;;;;;119474;1192;24851;-59
2023/06/22 12:02:47;;;;;;;;;12.00;12.00;;;;;;;;119527;1186;25443;-59
2023/06/22 12:05:16;;;;;;;;;14.00;12.50;;;;;;;;119497;1192;25181;-58
2023/06/22 12:07:44;;;;;;;;;17.50;13.00;;;;;;;;119871;1188;25067;-59
2023/06/22 12:10:13;;;;;;;;;10.25;9.75;;;;;;;;119870;1192;25281;-59
2023/06/22 12:12:41;;;;;;;;;14.67;14.00;;;;;;;;119870;1183;25026;-59
2023/06/22 12:15:10;;;;;;;;;13.00;12.00;;;;;;;;119483;1192;25235;-59
2023/06/22 12:17:40;;;;;;;;;15.25;12.00;;;;;;;;119863;1189;25721;-58
2023/06/22 12:20:09;;;;;;;;;11.00;10.67;;;;;;;;119462;1192;24979;-59
2023/06/22 12:22:37;;;;;;;;;18.00;13.00;;;;;;;;119519;1185;25083;-58
2023/06/22 12:25:06;;;;;;;;;12.25;11.25;;;;;;;;119867;1192;25466;-57
2023/06/22 12:27:35;;;;;;;;;12.33;9.67;;;;;;;;119502;1185;24977;-58
2023/06/22 12:30:04;;;;;;;;;10.00;9.67;;;;;;;;119705;1192;25521;-58
2023/06/22 12:32:33;;;;;;;;;10.50;10.00;;;;;;;;119520;1192;25260;-58
2023/06/22 12:35:01;;;;;;;;;16.00;14.00;;;;;;;;119861;1183;25968;-58
2023/06/22 12:37:31;;;;;;;;;12.50;12.50;;;;;;;;119857;1192;25452;-58
2023/06/22 12:40:00;;;;;;;;;15.50;12.00;;;;;;;;119868;1192;25139;-58
2023/06/22 12:42:28;;;;;;;;;11.00;8.00;;;;;;;;119890;1183;25833;-58
2023/06/22 12:44:56;;;;;;;;;9.50;9.50;;;;;;;;119861;1192;25650;-58
2023/06/22 12:47:25;;;;;;;;;10.00;9.25;;;;;;;;119886;1183;24944;-58
2023/06/22 12:49:53;;;;;;;;;16.50;16.00;;;;;;;;119507;1192;24927;-58
2023/06/22 12:52:22;;;;;;;;;12.25;9.50;;;;;;;;119865;1192;25537;-58
2023/06/22 12:54:50;;;;;;;;;14.00;11.00;;;;;;;;119877;1184;25648;-58
2023/06/22 12:57:23;;;;;;;;;14.00;12.67;;;;;;;;119870;1192;25420;-58
2023/06/22 12:59:51;;;;;;;;;12.00;10.50;;;;;;;;119875;1192;25076;-58
2023/06/22 13:02:20;;;;;;;;;16.00;12.67;;;;;;;;119855;1192;25495;-57
2023/06/22 13:04:48;;;;;;;;;10.50;10.50;;;;;;;;119846;1192;25531;-58
2023/06/22 13:07:16;;;;;;;;;13.67;13.67;;;;;;;;119769;1190;25184;-58
2023/06/22 13:09:54;;;;;;;;;11.75;11.75;;;;;;;;119809;1192;26036;-59
2023/06/22 13:12:22;;;;;;;;;10.00;10.00;;;;;;;;119465;1184;25480;-59
2023/06/22 13:14:50;;;;;;;;;11.00;11.00;;;;;;;;119461;1183;24834;-59
2023/06/22 13:17:19;;;;;;;;;17.00;15.00;;;;;;;;119783;1192;25319;-58
2023/06/22 13:19:47;;;;;;;;;9.50;9.00;;;;;;;;119475;1192;25010;-57
2023/06/22 13:22:45;;;;;;;;;13.00;13.00;;;;;;;;119767;1183;24823;-58
2023/06/22 13:25:14;;;;;;;;;15.67;14.33;;;;;;;;119685;1192;25531;-58
2023/06/22 13:27:43;;;;;;;;;9.33;9.33;;;;;;;;119781;1189;25448;-58
2023/06/22 13:30:13;;;;;;;;;17.00;15.50;;;;;;;;119454;1185;24781;-58
2023/06/22 13:32:42;;;;;;;;;11.00;10.00;;;;;;;;119819;1192;25076;-58
2023/06/22 13:35:11;;;;;;;;;15.00;14.00;;;;;;;;119799;1183;25748;-58
2023/06/22 13:37:40;;;;;;;;;14.67;13.67;;;;;;;;119433;1186;25193;-58
2023/06/22 13:40:09;;;;;;;;;9.00;9.00;;;;;;;;119428;1192;24860;-58
2023/06/22 13:42:38;;;;;;;;;13.50;13.50;;;;;;;;119462;1189;24798;-58
2023/06/22 13:45:08;;;;;;;;;10.25;9.25;;;;;;;;119454;1192;24802;-58
2023/06/22 13:47:36;;;;;;;;;8.33;8.33;;;;;;;;119456;1185;24825;-58
2023/06/22 13:50:05;;;;;;;;;13.50;10.50;;;;;;;;119444;1192;25392;-59
2023/06/22 13:52:34;;;;;;;;;13.00;11.33;;;;;;;;119799;1192;25544;-59
2023/06/22 13:55:02;;;;;;;;;13.50;10.00;;;;;;;;119475;1185;25486;-58
2023/06/22 13:57:31;;;;;;;;;12.50;12.50;;;;;;;;119797;1192;25213;-58
2023/06/22 13:59:59;;;;;;;;;14.67;12.00;;;;;;;;119797;1183;25480;-58
2023/06/22 14:02:28;;;;;;;;;11.00;9.00;;;;;;;;119446;1192;24801;-58
2023/06/22 14:04:57;;;;;;;;;11.67;11.67;;;;;;;;119778;1192;25442;-59
2023/06/22 14:07:25;;;;;;;;;14.00;11.50;;;;;;;;119474;1192;25713;-59
2023/06/22 14:09:53;;;;;;;;;11.00;9.50;;;;;;;;119450;1185;24869;-57
2023/06/22 14:12:22;;;;;;;;;16.00;10.00;;;;;;;;119800;1192;25708;-57
2023/06/22 14:14:50;;;;;;;;;13.00;11.00;;;;;;;;119795;1192;25484;-58
2023/06/22 14:17:23;;;;;;;;;15.00;11.00;;;;;;;;119811;1183;26099;-58
2023/06/22 14:19:52;;;;;;;;;14.33;12.67;;;;;;;;119787;1192;24830;-57